Cedar Creek, TX (78612)

12:22 PM CDT on May 06, 2015 (GMT -0500)
APRSWXNET | | Change Station
CLOSE
Current Station
Personal Weather Station
Location: Cedar Creek, TX
Elevation: 419 ft
Nearby Weather Stations

Elev 419 ft 30.08 °N, 97.50 °W | Updated 30 minutes ago

Mostly Cloudy
Mostly Cloudy
79 °F
Feels Like 82 °F
N
9
Wind Variable Wind from SSE
Gusts 0.0 mph

Today
High -- | Low -- °F
--% Chance of Precip.
Yesterday
High -- | Low -- °F
Precip. -- in
6:43 AM 8:10 PM
Waning Gibbous, 93% visible
Pressure 29.93 in
Visibility 10.0 miles
Clouds Scattered Clouds 2600 ft
Mostly Cloudy 3500 ft
Mostly Cloudy 25000 ft
Heat Index 82 °F
Dew Point 69 °F
Humidity 72%
Rainfall in
Snow Depth Not available.
UV 6 out of 12
Pollen 4.20 out of 12
Air Quality Not available.
Flu Activity Sporadic
METAR KAUS 061653Z 15015G19KT 10SM SCT026 BKN035 BKN250 27/21 A2995 RMK AO2 SLP134 T02670206

More Conditions Fewer Conditions

Pressure 29.93 in
Visibility 10.0 miles
Clouds Scattered Clouds 2600 ft
Mostly Cloudy 3500 ft
Mostly Cloudy 25000 ft
Heat Index 82 °F
Dew Point 69 °F
Humidity 72%
Rainfall in
Snow Depth Not available.
UV 6 out of 12
Pollen 4.20 out of 12
Air Quality Not available.
Flu Activity Sporadic
METAR KAUS 061653Z 15015G19KT 10SM SCT026 BKN035 BKN250 27/21 A2995 RMK AO2 SLP134 T02670206

More Conditions Fewer Conditions

Nowcast | as of 11:10 am CDT on May 6, 2015

Through 1 PM...isolated to widely scattered showers will move north across south central Texas and The Hill Country. Rainfall amounts up to one quarter inch are possible.

×

10-Day Weather Forecast

Almanac

Astronomy

May. 06, 2015 Rise Set
Actual Time
Civil Twilight
Nautical Twilight
Astronomical Twilight
Moon
Length of Visible Light
Length of Day
Tomorrow will be .
, % of the Moon is Illuminated

Today's Extremes

State Highs State Lows

Community

WunderPhotos

Upload Photos

1,818,956 photos uploaded!

WunderBlogs® & News

Nearby

Air Quality

  Air Quality AQ Index Pollutant
Not available.

Snow Depth

Station Depth Elevation

Earthquake Activity

City Distance Mag. Time & Date
Minimum magnitude displayed is 2.5.

Coastal Water Temperatures

Place Temperature

Stations

Nearby Weather Stations

Station Location Temp. Windchill Dew Point Humidity Wind Precip. Elev Updated Type